Kaisei Maru — JD3114 — position and weather

sailwx.info

Track history (hours):
 
Tides and Currents Weather Stations Pressure Air Temp Water Temp Dewpoint Dewpoint Depression Visibility Wind Speed Wind Dir Waves Ship Positions

Kaisei Maru

Last reported at 2016-Jun-22 09:33 UTC. Time now 2016-Jun-26 02:55 UTC.
Position N 34°36' E 135°03'.

Length 52 m; draft 3.8 m.

Type: Tanker. MMSI: 431001837.

Date/timePositionNaut miles runAvg speedWind from/ knotsBaromVisibWave heightAir tempDewpointWater temp
2016-Jun-22 09:33N 34°36' E 135°03'1010.0
2016-Jun-22 08:33N 34°36' E 135°15'9 9.5
2016-Jun-22 07:33N 34°40' E 135°26'0 0.3
2016-Jun-22 06:33N 34°40' E 135°27'0 0.1
2016-Jun-22 05:33N 34°40' E 135°27'9 9.5
2016-Jun-22 04:33N 34°36' E 135°16'6 5.8
2016-Jun-22 03:33N 34°39' E 135°10'0 0.0
2016-Jun-22 02:33N 34°39' E 135°10'0 0.0
2016-Jun-22 01:33N 34°39' E 135°10'0 0.0
2016-Jun-22 00:33N 34°39' E 135°10'0 0.0
2016-Jun-21 23:33N 34°39' E 135°10'3 3.0
2016-Jun-21 22:33N 34°41' E 135°12'0 0.0
2016-Jun-21 21:33N 34°41' E 135°12'0 0.0
2016-Jun-21 20:33N 34°41' E 135°12'0 0.0
2016-Jun-21 19:33N 34°41' E 135°12'0 0.0
2016-Jun-21 18:33N 34°41' E 135°12'0 0.0
2016-Jun-21 17:33N 34°41' E 135°12'0 0.0
2016-Jun-21 16:33N 34°41' E 135°12'0 0.0
2016-Jun-21 15:33N 34°41' E 135°12'0 0.0
2016-Jun-21 14:33N 34°41' E 135°12'0 0.0
2016-Jun-21 13:33N 34°41' E 135°12'0 0.0
2016-Jun-21 12:33N 34°41' E 135°12'0 0.0
2016-Jun-21 11:33N 34°41' E 135°12'0 0.0
2016-Jun-21 10:33N 34°41' E 135°12'0 0.0
2016-Jun-21 09:33N 34°41' E 135°12'0 0.0
2016-Jun-21 08:33N 34°41' E 135°12'0 0.0
2016-Jun-21 07:33N 34°41' E 135°12'0 0.0
2016-Jun-21 05:33N 34°41' E 135°12'0 0.0
2016-Jun-21 04:33N 34°41' E 135°12'0 0.0
2016-Jun-21 03:33N 34°41' E 135°12'0 0.0
2016-Jun-21 02:33N 34°41' E 135°12'0 0.0
2016-Jun-21 01:33N 34°41' E 135°12'0 0.0
2016-Jun-21 00:33N 34°41' E 135°12'0 0.0
2016-Jun-20 23:33N 34°41' E 135°12'0 0.0
2016-Jun-20 22:33N 34°41' E 135°12'0 0.0
2016-Jun-20 21:33N 34°41' E 135°12'0 0.0
2016-Jun-20 20:33N 34°41' E 135°12'0 0.0
2016-Jun-20 19:33N 34°41' E 135°12'0 0.0
2016-Jun-20 18:33N 34°41' E 135°12'0 0.0
2016-Jun-20 17:33N 34°41' E 135°12'0 0.0
2016-Jun-20 16:33N 34°41' E 135°12'0 0.0
2016-Jun-20 15:33N 34°41' E 135°12'0 0.0
2016-Jun-20 14:33N 34°41' E 135°12'0 0.0
2016-Jun-20 13:33N 34°41' E 135°12'0 0.0
2016-Jun-20 12:33N 34°41' E 135°12'0 0.0
2016-Jun-20 11:33N 34°41' E 135°12'0 0.0
2016-Jun-20 10:33N 34°41' E 135°12'0 0.0
2016-Jun-20 09:33N 34°41' E 135°12'0 0.0
2016-Jun-20 08:33N 34°41' E 135°12'5 4.8
2016-Jun-20 07:33N 34°42' E 135°18'0 0.0
2016-Jun-20 06:33N 34°42' E 135°18'4 4.0
2016-Jun-20 05:33N 34°41' E 135°13'4 3.8
2016-Jun-20 04:33N 34°39' E 135°10'0 0.0
2016-Jun-20 03:33N 34°39' E 135°10'0 0.0
2016-Jun-20 02:33N 34°39' E 135°10'0 0.0
2016-Jun-20 01:33N 34°39' E 135°10'0 0.0
2016-Jun-20 00:33N 34°39' E 135°10'0 0.0
2016-Jun-19 23:33N 34°39' E 135°10'1 0.7
2016-Jun-19 22:33N 34°38' E 135°10'0 0.0
2016-Jun-19 21:32N 34°38' E 135°10'0 0.0
2016-Jun-19 20:33N 34°38' E 135°10'0 0.0
2016-Jun-19 19:33N 34°38' E 135°10'0 0.1
2016-Jun-19 18:33N 34°38' E 135°10'0 0.0
2016-Jun-19 17:33N 34°38' E 135°10'0 0.0
2016-Jun-19 16:33N 34°38' E 135°10'0 0.0
2016-Jun-19 15:33N 34°38' E 135°10'0 0.1
2016-Jun-19 14:33N 34°38' E 135°10'0 0.0
2016-Jun-19 13:33N 34°38' E 135°10'0 0.0
2016-Jun-19 12:33N 34°38' E 135°10'0 0.0
2016-Jun-19 11:33N 34°38' E 135°10'0 0.0
2016-Jun-19 10:33N 34°38' E 135°10'0 0.0
2016-Jun-19 09:33N 34°38' E 135°10'1 0.9
2016-Jun-19 08:33N 34°38' E 135°11'6 5.6
2016-Jun-19 07:33N 34°40' E 135°18'0 0.0
2016-Jun-19 06:33N 34°40' E 135°18'0 0.0
2016-Jun-19 05:33N 34°40' E 135°18'7 6.9
2016-Jun-19 04:33N 34°33' E 135°20'4 4.3
2016-Jun-19 03:33N 34°31' E 135°25'0 0.0
2016-Jun-19 02:33N 34°31' E 135°25'0 0.0
2016-Jun-19 01:33N 34°31' E 135°25'0 0.0
2016-Jun-19 00:33N 34°31' E 135°25'0 0.0
2016-Jun-18 23:33N 34°31' E 135°25'2 1.6
2016-Jun-18 22:33N 34°32' E 135°23'0 0.1
2016-Jun-18 21:33N 34°32' E 135°23'0 0.1
2016-Jun-18 20:31N 34°32' E 135°23'0 0.1
2016-Jun-18 19:33N 34°32' E 135°23'0 0.0
2016-Jun-18 18:32N 34°32' E 135°23'0 0.0
2016-Jun-18 17:33N 34°32' E 135°23'0 0.0
2016-Jun-18 16:32N 34°32' E 135°23'0 0.0
2016-Jun-18 15:33N 34°32' E 135°23'0 0.0
2016-Jun-18 14:33N 34°32' E 135°23'0 0.0
2016-Jun-18 13:33N 34°32' E 135°23'0 0.1
2016-Jun-18 12:33N 34°32' E 135°23'0 0.0
2016-Jun-18 11:33N 34°32' E 135°23'0 0.0
2016-Jun-18 10:27N 34°32' E 135°23'4 4.6
2016-Jun-18 09:33N 34°34' E 135°19'6 6.0
2016-Jun-18 08:33N 34°40' E 135°18'0 0.0
2016-Jun-18 07:33N 34°40' E 135°18'0 0.0
2016-Jun-18 06:33N 34°40' E 135°18'3 2.6
2016-Jun-18 05:33N 34°41' E 135°14'2 1.8
2016-Jun-18 04:33N 34°41' E 135°12'0 0.0
2016-Jun-18 03:33N 34°41' E 135°12'0 0.0
2016-Jun-18 02:33N 34°41' E 135°12'0 0.0
2016-Jun-18 01:33N 34°41' E 135°12'0 0.0
2016-Jun-18 00:33N 34°41' E 135°12'0 0.0
2016-Jun-17 23:33N 34°41' E 135°12'0 0.0
2016-Jun-17 22:33N 34°41' E 135°12'0 0.0
2016-Jun-17 21:33N 34°41' E 135°12'0 0.0
2016-Jun-17 20:33N 34°41' E 135°12'0 0.0
2016-Jun-17 19:33N 34°41' E 135°12'0 0.0
2016-Jun-17 18:33N 34°41' E 135°12'0 0.0
2016-Jun-17 17:33N 34°41' E 135°12'0 0.0
2016-Jun-17 16:33N 34°41' E 135°12'0 0.0
2016-Jun-17 15:33N 34°41' E 135°12'0 0.0
2016-Jun-17 14:33N 34°41' E 135°12'0 0.0
2016-Jun-17 13:33N 34°41' E 135°12'0 0.0
2016-Jun-17 12:33N 34°41' E 135°12'0 0.0
2016-Jun-17 11:33N 34°41' E 135°12'0 0.0
2016-Jun-17 10:33N 34°41' E 135°12'0 0.0
2016-Jun-17 09:33N 34°41' E 135°12'0 0.0
2016-Jun-17 08:33N 34°41' E 135°12'0 0.0
2016-Jun-17 07:33N 34°41' E 135°12'0 0.0
2016-Jun-17 06:33N 34°41' E 135°12'0 0.0
2016-Jun-17 05:33N 34°41' E 135°12'0 0.0
2016-Jun-17 04:33N 34°41' E 135°12'0 0.0
2016-Jun-17 03:33N 34°41' E 135°12'0 0.0
2016-Jun-17 02:33N 34°41' E 135°12'0 0.0
2016-Jun-17 01:33N 34°41' E 135°12'0 0.0
2016-Jun-17 00:33N 34°41' E 135°12'0 0.0
2016-Jun-16 23:33N 34°41' E 135°12'0 0.0
2016-Jun-16 22:33N 34°41' E 135°12'0 0.0
2016-Jun-16 21:33N 34°41' E 135°12'0 0.0
2016-Jun-16 20:33N 34°41' E 135°12'0 0.0
2016-Jun-16 19:33N 34°41' E 135°12'0 0.0
2016-Jun-16 18:33N 34°41' E 135°12'0 0.0
2016-Jun-16 17:33N 34°41' E 135°12'0 0.0
2016-Jun-16 16:33N 34°41' E 135°12'0 0.0
2016-Jun-16 15:33N 34°41' E 135°12'0 0.0
2016-Jun-16 14:33N 34°41' E 135°12'0 0.0
2016-Jun-16 13:33N 34°41' E 135°12'0 0.0
2016-Jun-16 12:33N 34°41' E 135°12'0 0.0
2016-Jun-16 11:33N 34°41' E 135°12'0 0.0
2016-Jun-16 10:33N 34°41' E 135°12'0 0.0
2016-Jun-16 09:33N 34°41' E 135°12'0 0.0
2016-Jun-16 08:33N 34°41' E 135°12'0 0.0
2016-Jun-16 07:33N 34°41' E 135°12'0 0.0
2016-Jun-16 06:33N 34°41' E 135°12'0 0.0
2016-Jun-16 05:33N 34°41' E 135°12'0 0.0
2016-Jun-16 04:33N 34°41' E 135°12'0 0.0
2016-Jun-16 03:33N 34°41' E 135°12'0 0.0
2016-Jun-16 02:33N 34°41' E 135°12'4 3.8
2016-Jun-16 01:34N 34°42' E 135°17'0 0.0
2016-Jun-16 00:33N 34°42' E 135°17'0 0.0
2016-Jun-15 23:33N 34°42' E 135°17'1 1.2
2016-Jun-15 22:33N 34°42' E 135°18'0 0.0
2016-Jun-15 21:33N 34°42' E 135°18'0 0.0
2016-Jun-15 20:33N 34°42' E 135°18'6 5.7
2016-Jun-15 19:33N 34°36' E 135°17'1010.1
2016-Jun-15 18:33N 34°28' E 135°10'1410.6
2016-Jun-15 17:12N 34°15' E 135°02'710.6
2016-Jun-15 16:33N 34°09' E 135°00'  
Track history (hours):
 
Tides and Currents Weather Stations Pressure Air Temp Water Temp Dewpoint Dewpoint Depression Visibility Wind Speed Wind Dir Waves Ship Positions

Kaisei Maru

Last reported at 2016-Jun-22 09:33 UTC. Time now 2016-Jun-26 02:55 UTC.
Position N 34°36' E 135°03'.

Length 52 m; draft 3.8 m.

Type: Tanker. MMSI: 431001837.

Date/timePositionNaut miles runAvg speedWind from/ knotsBaromVisibWave heightAir tempDewpointWater temp
2016-Jun-22 09:33N 34°36' E 135°03'1010.0
2016-Jun-22 08:33N 34°36' E 135°15'9 9.5
2016-Jun-22 07:33N 34°40' E 135°26'0 0.3
2016-Jun-22 06:33N 34°40' E 135°27'0 0.1
2016-Jun-22 05:33N 34°40' E 135°27'9 9.5
2016-Jun-22 04:33N 34°36' E 135°16'6 5.8
2016-Jun-22 03:33N 34°39' E 135°10'0 0.0
2016-Jun-22 02:33N 34°39' E 135°10'0 0.0
2016-Jun-22 01:33N 34°39' E 135°10'0 0.0
2016-Jun-22 00:33N 34°39' E 135°10'0 0.0
2016-Jun-21 23:33N 34°39' E 135°10'3 3.0
2016-Jun-21 22:33N 34°41' E 135°12'0 0.0
2016-Jun-21 21:33N 34°41' E 135°12'0 0.0
2016-Jun-21 20:33N 34°41' E 135°12'0 0.0
2016-Jun-21 19:33N 34°41' E 135°12'0 0.0
2016-Jun-21 18:33N 34°41' E 135°12'0 0.0
2016-Jun-21 17:33N 34°41' E 135°12'0 0.0
2016-Jun-21 16:33N 34°41' E 135°12'0 0.0
2016-Jun-21 15:33N 34°41' E 135°12'0 0.0
2016-Jun-21 14:33N 34°41' E 135°12'0 0.0
2016-Jun-21 13:33N 34°41' E 135°12'0 0.0
2016-Jun-21 12:33N 34°41' E 135°12'0 0.0
2016-Jun-21 11:33N 34°41' E 135°12'0 0.0
2016-Jun-21 10:33N 34°41' E 135°12'0 0.0
2016-Jun-21 09:33N 34°41' E 135°12'0 0.0
2016-Jun-21 08:33N 34°41' E 135°12'0 0.0
2016-Jun-21 07:33N 34°41' E 135°12'0 0.0
2016-Jun-21 05:33N 34°41' E 135°12'0 0.0
2016-Jun-21 04:33N 34°41' E 135°12'0 0.0
2016-Jun-21 03:33N 34°41' E 135°12'0 0.0
2016-Jun-21 02:33N 34°41' E 135°12'0 0.0
2016-Jun-21 01:33N 34°41' E 135°12'0 0.0
2016-Jun-21 00:33N 34°41' E 135°12'0 0.0
2016-Jun-20 23:33N 34°41' E 135°12'0 0.0
2016-Jun-20 22:33N 34°41' E 135°12'0 0.0
2016-Jun-20 21:33N 34°41' E 135°12'0 0.0
2016-Jun-20 20:33N 34°41' E 135°12'0 0.0
2016-Jun-20 19:33N 34°41' E 135°12'0 0.0
2016-Jun-20 18:33N 34°41' E 135°12'0 0.0
2016-Jun-20 17:33N 34°41' E 135°12'0 0.0
2016-Jun-20 16:33N 34°41' E 135°12'0 0.0
2016-Jun-20 15:33N 34°41' E 135°12'0 0.0
2016-Jun-20 14:33N 34°41' E 135°12'0 0.0
2016-Jun-20 13:33N 34°41' E 135°12'0 0.0
2016-Jun-20 12:33N 34°41' E 135°12'0 0.0
2016-Jun-20 11:33N 34°41' E 135°12'0 0.0
2016-Jun-20 10:33N 34°41' E 135°12'0 0.0
2016-Jun-20 09:33N 34°41' E 135°12'0 0.0
2016-Jun-20 08:33N 34°41' E 135°12'5 4.8
2016-Jun-20 07:33N 34°42' E 135°18'0 0.0
2016-Jun-20 06:33N 34°42' E 135°18'4 4.0
2016-Jun-20 05:33N 34°41' E 135°13'4 3.8
2016-Jun-20 04:33N 34°39' E 135°10'0 0.0
2016-Jun-20 03:33N 34°39' E 135°10'0 0.0
2016-Jun-20 02:33N 34°39' E 135°10'0 0.0
2016-Jun-20 01:33N 34°39' E 135°10'0 0.0
2016-Jun-20 00:33N 34°39' E 135°10'0 0.0
2016-Jun-19 23:33N 34°39' E 135°10'1 0.7
2016-Jun-19 22:33N 34°38' E 135°10'0 0.0
2016-Jun-19 21:32N 34°38' E 135°10'0 0.0
2016-Jun-19 20:33N 34°38' E 135°10'0 0.0
2016-Jun-19 19:33N 34°38' E 135°10'0 0.1
2016-Jun-19 18:33N 34°38' E 135°10'0 0.0
2016-Jun-19 17:33N 34°38' E 135°10'0 0.0
2016-Jun-19 16:33N 34°38' E 135°10'0 0.0
2016-Jun-19 15:33N 34°38' E 135°10'0 0.1
2016-Jun-19 14:33N 34°38' E 135°10'0 0.0
2016-Jun-19 13:33N 34°38' E 135°10'0 0.0
2016-Jun-19 12:33N 34°38' E 135°10'0 0.0
2016-Jun-19 11:33N 34°38' E 135°10'0 0.0
2016-Jun-19 10:33N 34°38' E 135°10'0 0.0
2016-Jun-19 09:33N 34°38' E 135°10'1 0.9
2016-Jun-19 08:33N 34°38' E 135°11'6 5.6
2016-Jun-19 07:33N 34°40' E 135°18'0 0.0
2016-Jun-19 06:33N 34°40' E 135°18'0 0.0
2016-Jun-19 05:33N 34°40' E 135°18'7 6.9
2016-Jun-19 04:33N 34°33' E 135°20'4 4.3
2016-Jun-19 03:33N 34°31' E 135°25'0 0.0
2016-Jun-19 02:33N 34°31' E 135°25'0 0.0
2016-Jun-19 01:33N 34°31' E 135°25'0 0.0
2016-Jun-19 00:33N 34°31' E 135°25'0 0.0
2016-Jun-18 23:33N 34°31' E 135°25'2 1.6
2016-Jun-18 22:33N 34°32' E 135°23'0 0.1
2016-Jun-18 21:33N 34°32' E 135°23'0 0.1
2016-Jun-18 20:31N 34°32' E 135°23'0 0.1
2016-Jun-18 19:33N 34°32' E 135°23'0 0.0
2016-Jun-18 18:32N 34°32' E 135°23'0 0.0
2016-Jun-18 17:33N 34°32' E 135°23'0 0.0
2016-Jun-18 16:32N 34°32' E 135°23'0 0.0
2016-Jun-18 15:33N 34°32' E 135°23'0 0.0
2016-Jun-18 14:33N 34°32' E 135°23'0 0.0
2016-Jun-18 13:33N 34°32' E 135°23'0 0.1
2016-Jun-18 12:33N 34°32' E 135°23'0 0.0
2016-Jun-18 11:33N 34°32' E 135°23'0 0.0
2016-Jun-18 10:27N 34°32' E 135°23'4 4.6
2016-Jun-18 09:33N 34°34' E 135°19'6 6.0
2016-Jun-18 08:33N 34°40' E 135°18'0 0.0
2016-Jun-18 07:33N 34°40' E 135°18'0 0.0
2016-Jun-18 06:33N 34°40' E 135°18'3 2.6
2016-Jun-18 05:33N 34°41' E 135°14'2 1.8
2016-Jun-18 04:33N 34°41' E 135°12'0 0.0
2016-Jun-18 03:33N 34°41' E 135°12'0 0.0
2016-Jun-18 02:33N 34°41' E 135°12'0 0.0
2016-Jun-18 01:33N 34°41' E 135°12'0 0.0
2016-Jun-18 00:33N 34°41' E 135°12'0 0.0
2016-Jun-17 23:33N 34°41' E 135°12'0 0.0
2016-Jun-17 22:33N 34°41' E 135°12'0 0.0
2016-Jun-17 21:33N 34°41' E 135°12'0 0.0
2016-Jun-17 20:33N 34°41' E 135°12'0 0.0
2016-Jun-17 19:33N 34°41' E 135°12'0 0.0
2016-Jun-17 18:33N 34°41' E 135°12'0 0.0
2016-Jun-17 17:33N 34°41' E 135°12'0 0.0
2016-Jun-17 16:33N 34°41' E 135°12'0 0.0
2016-Jun-17 15:33N 34°41' E 135°12'0 0.0
2016-Jun-17 14:33N 34°41' E 135°12'0 0.0
2016-Jun-17 13:33N 34°41' E 135°12'0 0.0
2016-Jun-17 12:33N 34°41' E 135°12'0 0.0
2016-Jun-17 11:33N 34°41' E 135°12'0 0.0
2016-Jun-17 10:33N 34°41' E 135°12'0 0.0
2016-Jun-17 09:33N 34°41' E 135°12'0 0.0
2016-Jun-17 08:33N 34°41' E 135°12'0 0.0
2016-Jun-17 07:33N 34°41' E 135°12'0 0.0
2016-Jun-17 06:33N 34°41' E 135°12'0 0.0
2016-Jun-17 05:33N 34°41' E 135°12'0 0.0
2016-Jun-17 04:33N 34°41' E 135°12'0 0.0
2016-Jun-17 03:33N 34°41' E 135°12'0 0.0
2016-Jun-17 02:33N 34°41' E 135°12'0 0.0
2016-Jun-17 01:33N 34°41' E 135°12'0 0.0
2016-Jun-17 00:33N 34°41' E 135°12'0 0.0
2016-Jun-16 23:33N 34°41' E 135°12'0 0.0
2016-Jun-16 22:33N 34°41' E 135°12'0 0.0
2016-Jun-16 21:33N 34°41' E 135°12'0 0.0
2016-Jun-16 20:33N 34°41' E 135°12'0 0.0
2016-Jun-16 19:33N 34°41' E 135°12'0 0.0
2016-Jun-16 18:33N 34°41' E 135°12'0 0.0
2016-Jun-16 17:33N 34°41' E 135°12'0 0.0
2016-Jun-16 16:33N 34°41' E 135°12'0 0.0
2016-Jun-16 15:33N 34°41' E 135°12'0 0.0
2016-Jun-16 14:33N 34°41' E 135°12'0 0.0
2016-Jun-16 13:33N 34°41' E 135°12'0 0.0
2016-Jun-16 12:33N 34°41' E 135°12'0 0.0
2016-Jun-16 11:33N 34°41' E 135°12'0 0.0
2016-Jun-16 10:33N 34°41' E 135°12'0 0.0
2016-Jun-16 09:33N 34°41' E 135°12'0 0.0
2016-Jun-16 08:33N 34°41' E 135°12'0 0.0
2016-Jun-16 07:33N 34°41' E 135°12'0 0.0
2016-Jun-16 06:33N 34°41' E 135°12'0 0.0
2016-Jun-16 05:33N 34°41' E 135°12'0 0.0
2016-Jun-16 04:33N 34°41' E 135°12'0 0.0
2016-Jun-16 03:33N 34°41' E 135°12'0 0.0
2016-Jun-16 02:33N 34°41' E 135°12'4 3.8
2016-Jun-16 01:34N 34°42' E 135°17'0 0.0
2016-Jun-16 00:33N 34°42' E 135°17'0 0.0
2016-Jun-15 23:33N 34°42' E 135°17'1 1.2
2016-Jun-15 22:33N 34°42' E 135°18'0 0.0
2016-Jun-15 21:33N 34°42' E 135°18'0 0.0
2016-Jun-15 20:33N 34°42' E 135°18'6 5.7
2016-Jun-15 19:33N 34°36' E 135°17'1010.1
2016-Jun-15 18:33N 34°28' E 135°10'1410.6
2016-Jun-15 17:12N 34°15' E 135°02'710.6
2016-Jun-15 16:33N 34°09' E 135°00'  

Dump ship's entire track history